createdAt,value
2022-10-19T00:00:28.881Z,11.38
2022-10-19T00:02:55.270Z,8.27
2022-10-19T00:05:21.629Z,7.65
2022-10-19T00:07:48.029Z,7.70
2022-10-19T00:10:14.391Z,9.73
2022-10-19T00:12:40.836Z,8.32
2022-10-19T00:15:07.715Z,6.82
2022-10-19T00:17:34.927Z,7.00
2022-10-19T00:20:01.637Z,5.07
2022-10-19T00:22:28.017Z,5.65
2022-10-19T00:24:56.703Z,6.40
2022-10-19T00:27:23.105Z,6.03
2022-10-19T00:29:49.487Z,5.72
2022-10-19T00:32:15.868Z,5.50
2022-10-19T00:34:42.268Z,8.40
2022-10-19T00:37:08.623Z,6.47
2022-10-19T00:39:35.006Z,6.90
2022-10-19T00:42:01.364Z,5.78
2022-10-19T00:44:30.792Z,7.70
2022-10-19T00:47:02.000Z,5.57
2022-10-19T00:49:30.507Z,6.80
2022-10-19T00:52:04.524Z,6.53
2022-10-19T00:54:32.776Z,6.13
2022-10-19T00:56:59.678Z,5.30
2022-10-19T00:59:27.378Z,7.45
2022-10-19T01:01:54.325Z,5.88
2022-10-19T01:04:21.896Z,6.13
2022-10-19T01:06:48.302Z,5.20
2022-10-19T01:09:15.566Z,5.70
2022-10-19T01:12:01.843Z,5.40
2022-10-19T01:14:46.917Z,7.40
2022-10-19T01:17:24.334Z,5.53
2022-10-19T01:20:08.184Z,8.73
2022-10-19T01:23:00.489Z,6.82
2022-10-19T01:25:54.555Z,9.23
2022-10-19T01:28:41.675Z,6.60
2022-10-19T01:31:22.011Z,7.72
2022-10-19T01:34:10.775Z,8.73
2022-10-19T01:37:03.192Z,12.65
2022-10-19T01:39:45.338Z,8.93
2022-10-19T01:42:20.291Z,9.30
2022-10-19T01:45:07.000Z,14.52
2022-10-19T01:47:38.974Z,8.30
2022-10-19T01:50:14.771Z,7.75
2022-10-19T01:52:42.078Z,10.10
2022-10-19T01:55:09.832Z,13.90
2022-10-19T01:57:39.809Z,8.57
2022-10-19T02:02:36.679Z,8.23
2022-10-19T02:05:04.552Z,6.80
2022-10-19T02:07:31.516Z,7.72
2022-10-19T02:09:57.918Z,9.45
2022-10-19T02:12:25.062Z,9.02
2022-10-19T02:14:55.216Z,10.02
2022-10-19T02:17:25.385Z,8.10
2022-10-19T02:19:53.337Z,6.80
2022-10-19T02:22:19.771Z,5.72
2022-10-19T02:24:46.139Z,7.22
2022-10-19T02:27:12.606Z,7.38
2022-10-19T02:29:39.548Z,8.02
2022-10-19T02:32:06.587Z,6.35
2022-10-19T02:34:33.166Z,6.30
2022-10-19T02:36:59.553Z,5.80
2022-10-19T02:39:25.934Z,6.18
2022-10-19T02:42:00.476Z,5.80
2022-10-19T02:44:31.649Z,5.20
2022-10-19T02:47:03.391Z,5.18
2022-10-19T02:49:30.612Z,7.20
2022-10-19T02:52:15.151Z,4.03
2022-10-19T02:54:43.364Z,5.63
2022-10-19T02:57:21.372Z,8.23
2022-10-19T02:59:47.986Z,4.55
2022-10-19T03:02:15.625Z,5.55
2022-10-19T03:04:42.754Z,3.92
2022-10-19T03:07:10.535Z,4.05
2022-10-19T03:09:36.932Z,4.78
2022-10-19T03:12:03.593Z,5.70
2022-10-19T03:14:29.952Z,8.70
2022-10-19T03:16:56.325Z,6.68
2022-10-19T03:19:22.839Z,5.85
2022-10-19T03:21:49.224Z,5.88
2022-10-19T03:24:15.699Z,5.18
2022-10-19T03:26:42.088Z,8.15
2022-10-19T03:29:08.640Z,6.78
2022-10-19T03:31:35.317Z,6.13
2022-10-19T03:34:02.075Z,7.60
2022-10-19T03:36:30.810Z,6.95
2022-10-19T03:38:59.515Z,6.07
2022-10-19T03:41:28.122Z,6.60
2022-10-19T03:43:54.702Z,7.35
2022-10-19T03:46:21.443Z,6.00
2022-10-19T03:48:48.309Z,5.65
2022-10-19T03:51:25.910Z,5.50
2022-10-19T03:53:53.898Z,6.72
2022-10-19T03:56:23.029Z,8.07
2022-10-19T03:58:50.104Z,6.95
2022-10-19T04:01:22.336Z,6.30
2022-10-19T04:03:56.815Z,6.53
2022-10-19T04:06:28.768Z,5.80
2022-10-19T04:08:55.169Z,6.90
2022-10-19T04:11:24.480Z,5.18
2022-10-19T04:13:52.065Z,6.38
2022-10-19T04:16:19.408Z,6.03
2022-10-19T04:18:46.390Z,6.25
2022-10-19T04:21:29.782Z,3.95
2022-10-19T04:24:01.988Z,5.20
2022-10-19T04:26:28.568Z,5.55
2022-10-19T04:28:58.200Z,5.90
2022-10-19T04:31:24.856Z,6.30
2022-10-19T04:33:51.221Z,8.20
2022-10-19T04:36:17.586Z,5.82
2022-10-19T04:38:43.951Z,8.35
2022-10-19T04:41:15.912Z,6.13
2022-10-19T04:43:42.406Z,7.18
2022-10-19T04:46:11.309Z,7.25
2022-10-19T04:48:38.785Z,6.90
2022-10-19T04:51:05.881Z,7.80
2022-10-19T04:53:33.111Z,6.65
2022-10-19T04:55:59.608Z,4.93
2022-10-19T04:58:27.243Z,5.90
2022-10-19T05:00:53.768Z,5.60
2022-10-19T05:03:20.253Z,6.47
2022-10-19T05:05:46.610Z,5.55
2022-10-19T05:08:13.036Z,5.45
2022-10-19T05:10:41.213Z,6.22
2022-10-19T05:15:35.828Z,4.97
2022-10-19T05:18:02.248Z,5.25
2022-10-19T05:20:28.690Z,6.03
2022-10-19T05:22:55.169Z,6.30
2022-10-19T05:25:21.562Z,6.95
2022-10-19T05:27:52.486Z,7.45
2022-10-19T05:30:21.789Z,7.70
2022-10-19T05:32:48.771Z,7.82
2022-10-19T05:35:17.538Z,7.40
2022-10-19T05:37:46.456Z,8.32
2022-10-19T05:40:12.825Z,11.85
2022-10-19T05:42:39.428Z,7.93
2022-10-19T05:45:06.236Z,6.45
2022-10-19T05:47:34.249Z,7.32
2022-10-19T05:50:00.786Z,7.45
2022-10-19T05:52:27.754Z,7.50
2022-10-19T05:54:54.132Z,8.98
2022-10-19T05:57:20.566Z,9.90
2022-10-19T05:59:47.000Z,10.50
2022-10-19T06:02:14.072Z,7.05
2022-10-19T06:04:40.483Z,8.18
2022-10-19T06:07:06.997Z,6.10
2022-10-19T06:09:36.152Z,10.35
2022-10-19T06:12:03.671Z,7.40
2022-10-19T06:14:30.300Z,6.05
2022-10-19T06:16:56.834Z,6.85
2022-10-19T06:19:23.230Z,9.30
2022-10-19T06:21:49.632Z,6.97
2022-10-19T06:24:16.036Z,9.25
2022-10-19T06:26:42.633Z,9.52
2022-10-19T06:29:09.887Z,10.40
2022-10-19T06:31:36.614Z,10.27
2022-10-19T06:34:03.416Z,11.43
2022-10-19T06:36:30.901Z,9.30
2022-10-19T06:38:57.345Z,10.85
2022-10-19T06:41:24.012Z,9.13
2022-10-19T06:43:51.876Z,7.90
2022-10-19T06:46:23.280Z,9.50
2022-10-19T06:48:57.254Z,6.10
2022-10-19T06:51:25.474Z,7.80
2022-10-19T06:53:56.668Z,10.95
2022-10-19T06:56:27.000Z,10.15
2022-10-19T06:58:54.499Z,6.97
2022-10-19T07:01:21.578Z,8.30
2022-10-19T07:03:48.168Z,7.10
2022-10-19T07:06:14.682Z,7.38
2022-10-19T07:08:42.249Z,11.90
2022-10-19T07:11:12.972Z,10.40
2022-10-19T07:13:39.471Z,10.52
2022-10-19T07:16:08.355Z,9.85
2022-10-19T07:18:35.902Z,8.75
2022-10-19T07:21:04.857Z,9.88
2022-10-19T07:23:32.542Z,13.25
2022-10-19T07:26:04.940Z,11.18
2022-10-19T07:28:33.400Z,13.15
2022-10-19T07:31:05.084Z,8.40
2022-10-19T07:33:31.481Z,10.70
2022-10-19T07:36:07.296Z,9.05
2022-10-19T07:38:34.468Z,10.18
2022-10-19T07:41:08.694Z,9.23
2022-10-19T07:43:35.672Z,10.85
2022-10-19T07:46:07.078Z,13.82
2022-10-19T07:48:34.352Z,16.95
2022-10-19T07:51:02.264Z,18.05
2022-10-19T07:53:28.800Z,26.98
2022-10-19T07:55:55.421Z,24.75
2022-10-19T07:58:22.012Z,27.73
2022-10-19T08:00:48.441Z,28.23
2022-10-19T08:06:06.835Z,27.20
2022-10-19T08:08:33.956Z,17.58
2022-10-19T08:11:18.271Z,19.33
2022-10-19T08:13:44.776Z,15.85
2022-10-19T08:16:39.314Z,18.55
2022-10-19T08:19:14.061Z,12.70
2022-10-19T08:21:44.015Z,13.43
2022-10-19T08:26:38.911Z,9.43
2022-10-19T08:29:12.648Z,8.75
2022-10-19T08:31:39.193Z,8.88
2022-10-19T08:34:06.140Z,10.55
2022-10-19T08:36:32.692Z,11.07
2022-10-19T08:38:59.138Z,8.40
2022-10-19T08:41:41.150Z,10.45
2022-10-19T08:44:31.738Z,10.75
2022-10-19T08:46:58.064Z,11.10
2022-10-19T08:49:26.149Z,8.88
2022-10-19T08:52:08.539Z,7.50
2022-10-19T08:54:48.816Z,7.05
2022-10-19T08:57:18.155Z,8.85
2022-10-19T09:00:06.812Z,8.27
2022-10-19T09:03:04.367Z,7.25
2022-10-19T09:06:14.902Z,8.35
2022-10-19T09:08:41.439Z,6.30
2022-10-19T09:11:10.621Z,8.52
2022-10-19T09:14:04.365Z,5.28
2022-10-19T09:16:31.525Z,7.50
2022-10-19T09:18:57.931Z,7.18
2022-10-19T09:21:45.930Z,5.05
2022-10-19T09:24:35.185Z,8.93
2022-10-19T09:27:02.404Z,7.03
2022-10-19T09:29:39.130Z,4.72
2022-10-19T09:32:12.408Z,6.13
2022-10-19T09:34:44.500Z,6.05
2022-10-19T09:37:18.889Z,6.50
2022-10-19T09:39:54.041Z,8.15
2022-10-19T09:42:30.132Z,9.88
2022-10-19T09:44:57.252Z,5.82
2022-10-19T09:47:34.623Z,11.82
2022-10-19T09:50:21.180Z,9.10
2022-10-19T09:52:58.635Z,10.00
2022-10-19T09:55:34.919Z,9.70
2022-10-19T09:58:05.007Z,8.70
2022-10-19T10:00:39.702Z,9.80
2022-10-19T10:03:07.590Z,7.60
2022-10-19T10:05:39.186Z,4.85
2022-10-19T10:08:15.297Z,6.68
2022-10-19T10:10:49.096Z,6.70
2022-10-19T10:13:27.506Z,4.30
2022-10-19T10:16:00.402Z,4.32
2022-10-19T10:18:28.084Z,8.55
2022-10-19T10:21:01.159Z,6.10
2022-10-19T10:23:32.042Z,7.13
2022-10-19T10:26:00.092Z,4.97
2022-10-19T10:28:28.454Z,3.45
2022-10-19T10:31:02.083Z,4.88
2022-10-19T10:33:45.878Z,7.93
2022-10-19T10:36:12.623Z,5.20
2022-10-19T10:38:46.051Z,7.32
2022-10-19T10:41:14.760Z,5.22
2022-10-19T10:44:06.725Z,5.53
2022-10-19T10:46:35.859Z,9.02
2022-10-19T10:49:04.724Z,8.93
2022-10-19T10:51:34.003Z,5.00
2022-10-19T10:54:16.841Z,3.95
2022-10-19T10:56:44.346Z,6.78
2022-10-19T10:59:39.446Z,5.03
2022-10-19T11:02:17.163Z,6.03
2022-10-19T11:04:59.116Z,3.90
2022-10-19T11:07:26.884Z,4.53
2022-10-19T11:10:09.973Z,4.80
2022-10-19T11:12:40.568Z,4.35
2022-10-19T11:15:20.915Z,4.68
2022-10-19T11:18:00.954Z,4.82
2022-10-19T11:20:30.281Z,8.13
2022-10-19T11:23:07.543Z,4.38
2022-10-19T11:25:42.977Z,3.53
2022-10-19T11:28:33.261Z,4.32
2022-10-19T11:31:24.698Z,8.80
2022-10-19T11:34:25.244Z,9.30
2022-10-19T11:36:58.255Z,4.15
2022-10-19T11:40:23.129Z,7.00
2022-10-19T11:43:22.395Z,6.60
2022-10-19T11:46:00.485Z,4.38
2022-10-19T11:49:01.108Z,8.20
2022-10-19T11:54:29.354Z,4.55
2022-10-19T11:57:05.512Z,8.70
2022-10-19T11:59:43.380Z,5.68
2022-10-19T12:02:21.963Z,3.78
2022-10-19T12:04:55.499Z,4.10
2022-10-19T12:07:43.706Z,6.97
2022-10-19T12:10:28.238Z,4.20
2022-10-19T12:12:58.898Z,3.53
2022-10-19T12:15:28.485Z,6.65
2022-10-19T12:17:57.459Z,4.88
2022-10-19T12:20:38.983Z,5.53
2022-10-19T12:23:28.046Z,4.25
2022-10-19T12:25:56.601Z,4.55
2022-10-19T12:28:32.745Z,7.10
2022-10-19T12:31:01.186Z,6.93
2022-10-19T12:33:42.369Z,5.18
2022-10-19T12:36:19.639Z,13.43
2022-10-19T12:39:11.667Z,5.93
2022-10-19T12:42:03.638Z,6.80
2022-10-19T12:44:57.823Z,7.55
2022-10-19T12:47:26.022Z,4.57
2022-10-19T12:49:56.714Z,4.63
2022-10-19T12:52:48.057Z,4.90
2022-10-19T12:55:34.616Z,6.20
2022-10-19T12:58:19.897Z,7.18
2022-10-19T13:00:58.780Z,6.28
2022-10-19T13:03:30.081Z,7.13
2022-10-19T13:05:58.283Z,4.82
2022-10-19T13:08:34.039Z,5.03
2022-10-19T13:11:19.734Z,4.95
2022-10-19T13:13:55.101Z,5.60
2022-10-19T13:16:33.657Z,5.25
2022-10-19T13:19:00.213Z,7.45
2022-10-19T13:21:51.305Z,5.55
2022-10-19T13:24:23.813Z,6.03
2022-10-19T13:27:02.373Z,4.55
2022-10-19T13:29:41.031Z,4.65
2022-10-19T13:32:45.130Z,7.70
2022-10-19T13:35:24.817Z,9.38
2022-10-19T13:38:09.481Z,7.25
2022-10-19T13:40:56.220Z,6.70
2022-10-19T13:43:24.783Z,8.23
2022-10-19T13:46:02.755Z,6.82
2022-10-19T13:48:38.015Z,5.60
2022-10-19T13:51:38.117Z,4.90
2022-10-19T13:54:10.417Z,6.60
2022-10-19T13:56:55.541Z,6.32
2022-10-19T13:59:43.269Z,5.55
2022-10-19T14:02:34.365Z,8.85
2022-10-19T14:05:25.841Z,5.97
2022-10-19T14:08:03.297Z,7.47
2022-10-19T14:10:38.065Z,6.93
2022-10-19T14:13:14.229Z,7.18
2022-10-19T14:15:50.735Z,15.25
2022-10-19T14:18:34.436Z,7.97
2022-10-19T14:21:06.401Z,5.00
2022-10-19T14:23:34.919Z,4.88
2022-10-19T14:26:07.043Z,9.02
2022-10-19T14:28:33.724Z,4.05
2022-10-19T14:31:04.974Z,6.80
2022-10-19T14:33:36.657Z,9.25
2022-10-19T14:36:03.532Z,6.43
2022-10-19T14:38:36.685Z,4.82
2022-10-19T14:41:05.337Z,5.07
2022-10-19T14:43:34.230Z,5.20
2022-10-19T14:46:06.771Z,5.07
2022-10-19T14:48:34.829Z,4.28
2022-10-19T14:51:02.418Z,4.63
2022-10-19T14:54:13.447Z,6.65
2022-10-19T14:56:50.617Z,3.85
2022-10-19T14:59:24.581Z,5.65
2022-10-19T15:01:53.110Z,6.47
2022-10-19T15:04:29.928Z,3.78
2022-10-19T15:06:57.070Z,6.97
2022-10-19T15:09:37.798Z,3.42
2022-10-19T15:12:16.481Z,5.95
2022-10-19T15:14:43.285Z,5.20
2022-10-19T15:17:32.632Z,5.13
2022-10-19T15:20:01.133Z,5.07
2022-10-19T15:22:31.027Z,5.90
2022-10-19T15:25:06.520Z,7.40
2022-10-19T15:27:36.745Z,5.30
2022-10-19T15:30:18.399Z,4.75
2022-10-19T15:33:09.637Z,6.93
2022-10-19T15:35:38.385Z,6.85
2022-10-19T15:38:13.669Z,4.03
2022-10-19T15:40:42.309Z,5.07
2022-10-19T15:43:30.546Z,5.07
2022-10-19T15:45:59.841Z,6.22
2022-10-19T15:48:39.922Z,5.35
2022-10-19T15:51:26.295Z,5.18
2022-10-19T15:53:53.792Z,4.50
2022-10-19T15:56:21.353Z,6.93
2022-10-19T15:58:54.986Z,6.93
2022-10-19T16:01:26.350Z,4.85
2022-10-19T16:03:53.644Z,6.78
2022-10-19T16:06:22.409Z,5.50
2022-10-19T16:08:51.048Z,5.80
2022-10-19T16:11:19.492Z,5.63
2022-10-19T16:13:45.976Z,5.70
2022-10-19T16:16:18.313Z,6.20
2022-10-19T16:18:44.779Z,5.82
2022-10-19T16:21:11.214Z,4.95
2022-10-19T16:23:41.826Z,6.40
2022-10-19T16:26:08.718Z,7.25
2022-10-19T16:28:35.964Z,7.15
2022-10-19T16:31:02.642Z,7.43
2022-10-19T16:33:29.041Z,6.38
2022-10-19T16:35:55.468Z,7.00
2022-10-19T16:38:21.921Z,8.88
2022-10-19T16:40:48.502Z,8.38
2022-10-19T16:43:14.884Z,14.35
2022-10-19T16:45:44.358Z,10.95
2022-10-19T16:48:13.898Z,7.35
2022-10-19T16:50:40.440Z,8.43
2022-10-19T16:53:12.170Z,7.05
2022-10-19T16:55:42.454Z,10.73
2022-10-19T16:58:08.860Z,17.20
2022-10-19T17:00:35.922Z,18.42
2022-10-19T17:03:02.352Z,12.82
2022-10-19T17:05:28.926Z,9.65
2022-10-19T17:07:55.307Z,9.55
2022-10-19T17:10:21.751Z,7.65
2022-10-19T17:15:44.615Z,8.40
2022-10-19T17:18:01.046Z,11.05
2022-10-19T17:20:27.415Z,8.95
2022-10-19T17:22:53.797Z,8.38
2022-10-19T17:25:20.174Z,8.95
2022-10-19T17:27:50.676Z,9.65
2022-10-19T17:30:17.299Z,14.32
2022-10-19T17:32:43.757Z,12.55
2022-10-19T17:35:10.312Z,12.48
2022-10-19T17:37:37.105Z,14.05
2022-10-19T17:40:04.151Z,11.48
2022-10-19T17:42:31.050Z,9.98
2022-10-19T17:44:57.681Z,15.77
2022-10-19T17:47:26.482Z,13.35
2022-10-19T17:49:52.925Z,14.07
2022-10-19T17:52:19.349Z,16.30
2022-10-19T17:54:54.554Z,20.73
2022-10-19T17:57:32.576Z,15.55
2022-10-19T17:59:59.183Z,15.45
2022-10-19T18:02:25.694Z,11.32
2022-10-19T18:04:52.113Z,11.20
2022-10-19T18:07:18.733Z,13.65
2022-10-19T18:09:45.215Z,13.77
2022-10-19T18:12:13.346Z,10.05
2022-10-19T18:14:40.216Z,9.57
2022-10-19T18:17:06.629Z,7.28
2022-10-19T18:19:33.029Z,9.43
2022-10-19T18:21:59.409Z,11.10
2022-10-19T18:24:26.388Z,11.45
2022-10-19T18:26:52.815Z,13.88
2022-10-19T18:29:24.285Z,11.45
2022-10-19T18:31:52.206Z,15.18
2022-10-19T18:34:21.223Z,13.57
2022-10-19T18:36:48.354Z,16.42
2022-10-19T18:39:15.000Z,15.05
2022-10-19T18:41:41.779Z,40.55
2022-10-19T18:44:08.812Z,19.90
2022-10-19T18:46:36.639Z,18.52
2022-10-19T18:49:05.222Z,14.55
2022-10-19T18:51:32.076Z,11.13
2022-10-19T18:54:01.125Z,11.50
2022-10-19T18:56:29.263Z,13.90
2022-10-19T18:58:56.627Z,11.30
2022-10-19T19:01:28.110Z,7.20
2022-10-19T19:03:56.694Z,12.63
2022-10-19T19:06:29.613Z,14.35
2022-10-19T19:09:00.388Z,9.73
2022-10-19T19:11:34.309Z,10.85
2022-10-19T19:14:06.551Z,9.15
2022-10-19T19:16:34.823Z,9.73
2022-10-19T19:19:01.224Z,8.88
2022-10-19T19:21:29.427Z,10.98
2022-10-19T19:23:58.721Z,8.02
2022-10-19T19:26:27.713Z,7.65
2022-10-19T19:28:54.221Z,9.35
2022-10-19T19:31:20.650Z,10.93
2022-10-19T19:33:47.659Z,5.60
2022-10-19T19:36:15.869Z,7.57
2022-10-19T19:38:42.838Z,7.88
2022-10-19T19:41:12.035Z,11.80
2022-10-19T19:43:39.172Z,8.95
2022-10-19T19:46:09.395Z,8.75
2022-10-19T19:48:39.373Z,6.88
2022-10-19T19:51:08.764Z,7.40
2022-10-19T19:53:37.969Z,7.15
2022-10-19T19:56:06.283Z,6.60
2022-10-19T19:58:32.675Z,6.18
2022-10-19T20:00:59.064Z,6.70
2022-10-19T20:03:25.477Z,10.13
2022-10-19T20:05:51.895Z,7.70
2022-10-19T20:08:18.291Z,7.43
2022-10-19T20:10:44.731Z,8.30
2022-10-19T20:13:11.183Z,10.32
2022-10-19T20:15:38.652Z,10.43
2022-10-19T20:18:05.609Z,6.65
2022-10-19T20:20:32.134Z,7.85
2022-10-19T20:22:58.636Z,10.32
2022-10-19T20:25:25.074Z,6.72
2022-10-19T20:27:52.518Z,9.95
2022-10-19T20:30:18.983Z,8.18
2022-10-19T20:32:45.374Z,7.50
2022-10-19T20:35:11.792Z,6.88
2022-10-19T20:37:38.278Z,5.63
2022-10-19T20:40:08.593Z,7.35
2022-10-19T20:42:35.638Z,8.35
2022-10-19T20:45:02.269Z,9.38
2022-10-19T20:47:28.747Z,7.95
2022-10-19T20:49:55.159Z,6.70
2022-10-19T20:52:21.672Z,9.07
2022-10-19T20:54:48.628Z,11.35
2022-10-19T20:57:15.274Z,7.45
2022-10-19T20:59:43.701Z,6.45
2022-10-19T21:02:10.689Z,10.07
2022-10-19T21:04:37.229Z,10.73
2022-10-19T21:07:04.895Z,8.77
2022-10-19T21:09:31.462Z,7.43
2022-10-19T21:11:58.102Z,8.43
2022-10-19T21:14:28.388Z,8.70
2022-10-19T21:16:59.370Z,8.55
2022-10-19T21:19:28.281Z,8.10
2022-10-19T21:21:57.717Z,6.97
2022-10-19T21:24:27.312Z,8.07
2022-10-19T21:26:54.157Z,7.85
2022-10-19T21:29:20.727Z,8.43
2022-10-19T21:31:49.294Z,9.70
2022-10-19T21:34:27.577Z,8.82
2022-10-19T21:36:54.188Z,6.88
2022-10-19T21:39:20.995Z,8.45
2022-10-19T21:41:47.849Z,9.02
2022-10-19T21:44:15.079Z,9.40
2022-10-19T21:46:43.477Z,7.80
2022-10-19T21:49:12.943Z,7.15
2022-10-19T21:51:44.981Z,8.82
2022-10-19T21:54:13.816Z,7.18
2022-10-19T21:56:40.243Z,6.35
2022-10-19T21:59:06.764Z,7.97
2022-10-19T22:01:37.319Z,6.65
2022-10-19T22:04:08.395Z,8.82
2022-10-19T22:06:36.182Z,10.43
2022-10-19T22:09:05.135Z,5.93
2022-10-19T22:11:31.653Z,9.07
2022-10-19T22:13:59.902Z,7.47
2022-10-19T22:16:28.174Z,10.25
2022-10-19T22:18:55.302Z,8.35
2022-10-19T22:21:25.361Z,8.27
2022-10-19T22:23:56.115Z,7.30
2022-10-19T22:26:27.777Z,9.10
2022-10-19T22:28:58.682Z,7.38
2022-10-19T22:31:26.221Z,6.95
2022-10-19T22:33:52.659Z,7.78
2022-10-19T22:36:19.171Z,6.88
2022-10-19T22:38:45.788Z,9.65
2022-10-19T22:42:05.416Z,7.57
2022-10-19T22:44:31.836Z,8.23
2022-10-19T22:46:58.727Z,7.47
2022-10-19T22:49:25.100Z,8.80
2022-10-19T22:51:51.550Z,6.45
2022-10-19T22:54:17.909Z,9.13
2022-10-19T22:56:44.420Z,8.25
2022-10-19T22:59:13.077Z,6.95
2022-10-19T23:01:39.479Z,11.38
2022-10-19T23:04:05.901Z,7.80
2022-10-19T23:06:32.431Z,8.18
2022-10-19T23:08:58.841Z,7.30
2022-10-19T23:11:25.284Z,8.43
2022-10-19T23:13:51.960Z,7.35
2022-10-19T23:16:18.484Z,9.55
2022-10-19T23:18:45.101Z,9.30
2022-10-19T23:21:12.563Z,11.18
2022-10-19T23:23:39.275Z,9.50
2022-10-19T23:26:12.154Z,8.02
2022-10-19T23:28:40.202Z,11.20
2022-10-19T23:31:11.151Z,7.80
2022-10-19T23:33:37.657Z,8.93
2022-10-19T23:36:10.134Z,9.93
2022-10-19T23:38:36.742Z,10.32
2022-10-19T23:41:03.612Z,8.60
2022-10-19T23:43:30.128Z,6.50
2022-10-19T23:45:56.558Z,7.43
2022-10-19T23:48:22.931Z,8.23
2022-10-19T23:51:00.012Z,8.63
2022-10-19T23:53:27.531Z,7.57
2022-10-19T23:56:05.963Z,7.75
2022-10-19T23:58:32.932Z,8.35
